createdAt,value
2022-12-20T00:00:40.040Z,4.63
2022-12-20T00:03:12.597Z,2.53
2022-12-20T00:05:42.625Z,4.70
2022-12-20T00:08:14.081Z,4.80
2022-12-20T00:10:45.744Z,5.40
2022-12-20T00:13:16.072Z,5.53
2022-12-20T00:15:48.706Z,5.00
2022-12-20T00:18:22.321Z,4.60
2022-12-20T00:21:02.198Z,4.43
2022-12-20T00:24:00.229Z,4.43
2022-12-20T00:26:35.388Z,4.90
2022-12-20T00:29:09.057Z,4.00
2022-12-20T00:31:43.452Z,3.50
2022-12-20T00:34:20.583Z,4.20
2022-12-20T00:36:51.202Z,3.97
2022-12-20T00:39:22.269Z,3.63
2022-12-20T00:41:50.851Z,3.93
2022-12-20T00:44:22.634Z,3.70
2022-12-20T00:47:09.595Z,3.63
2022-12-20T00:49:38.389Z,4.20
2022-12-20T00:52:09.971Z,4.30
2022-12-20T00:54:43.228Z,3.17
2022-12-20T00:57:16.217Z,5.57
2022-12-20T00:59:48.395Z,4.50
2022-12-20T01:02:18.209Z,3.80
2022-12-20T01:04:47.160Z,3.90
2022-12-20T01:07:20.283Z,5.10
2022-12-20T01:09:56.464Z,5.17
2022-12-20T01:12:27.258Z,5.07
2022-12-20T01:14:57.225Z,5.77
2022-12-20T01:17:39.367Z,4.03
2022-12-20T01:20:32.512Z,4.77
2022-12-20T01:23:12.520Z,3.50
2022-12-20T01:25:45.611Z,4.03
2022-12-20T01:28:16.548Z,5.17
2022-12-20T01:30:45.283Z,4.87
2022-12-20T01:33:14.414Z,5.30
2022-12-20T01:35:43.093Z,4.20
2022-12-20T01:38:21.014Z,4.30
2022-12-20T01:40:53.809Z,5.00
2022-12-20T01:43:27.521Z,3.97
2022-12-20T01:46:08.214Z,4.73
2022-12-20T01:48:37.318Z,4.33
2022-12-20T01:51:15.280Z,3.60
2022-12-20T01:53:49.882Z,5.30
2022-12-20T01:56:25.499Z,4.20
2022-12-20T01:58:59.374Z,4.93
2022-12-20T02:01:41.164Z,4.67
2022-12-20T02:04:12.010Z,3.43
2022-12-20T02:06:43.495Z,4.77
2022-12-20T02:09:26.155Z,5.33
2022-12-20T02:12:11.517Z,5.00
2022-12-20T02:14:52.483Z,5.50
2022-12-20T02:17:29.315Z,4.40
2022-12-20T02:20:29.296Z,5.23
2022-12-20T02:23:16.029Z,5.50
2022-12-20T02:26:05.194Z,5.70
2022-12-20T02:28:46.245Z,4.60
2022-12-20T02:31:23.662Z,4.03
2022-12-20T02:33:55.891Z,5.10
2022-12-20T02:36:33.774Z,4.67
2022-12-20T02:39:15.900Z,5.03
2022-12-20T02:41:53.024Z,4.90
2022-12-20T02:44:41.414Z,4.27
2022-12-20T02:47:36.573Z,3.87
2022-12-20T02:50:08.428Z,4.23
2022-12-20T02:52:42.734Z,3.87
2022-12-20T02:55:11.888Z,3.80
2022-12-20T02:58:00.344Z,3.70
2022-12-20T03:00:35.330Z,3.23
2022-12-20T03:03:24.659Z,3.67
2022-12-20T03:06:01.064Z,4.03
2022-12-20T03:08:31.212Z,3.30
2022-12-20T03:11:04.606Z,4.40
2022-12-20T03:13:34.923Z,3.57
2022-12-20T03:16:12.285Z,4.00
2022-12-20T03:18:54.230Z,3.23
2022-12-20T03:21:23.114Z,2.60
2022-12-20T03:23:59.012Z,3.43
2022-12-20T03:26:32.048Z,4.10
2022-12-20T03:29:07.857Z,3.10
2022-12-20T03:31:42.379Z,2.47
2022-12-20T03:34:15.068Z,3.00
2022-12-20T03:36:43.676Z,3.17
2022-12-20T03:39:12.376Z,2.40
2022-12-20T03:41:44.563Z,2.97
2022-12-20T03:44:13.514Z,2.73
2022-12-20T03:46:50.028Z,2.53
2022-12-20T03:49:20.368Z,2.90
2022-12-20T03:51:49.420Z,2.57
2022-12-20T03:54:20.491Z,2.57
2022-12-20T03:56:49.085Z,2.77
2022-12-20T03:59:18.719Z,2.83
2022-12-20T04:01:53.076Z,2.23
2022-12-20T04:04:42.026Z,2.07
2022-12-20T04:07:12.566Z,2.00
2022-12-20T04:09:48.962Z,1.57
2022-12-20T04:12:30.052Z,1.90
2022-12-20T04:15:08.328Z,1.97
2022-12-20T04:18:10.166Z,2.00
2022-12-20T04:20:41.241Z,1.70
2022-12-20T04:23:32.526Z,1.60
2022-12-20T04:26:20.462Z,2.33
2022-12-20T04:29:28.914Z,1.60
2022-12-20T04:32:06.445Z,1.30
2022-12-20T04:34:35.943Z,2.07
2022-12-20T04:37:14.823Z,1.80
2022-12-20T04:40:08.433Z,2.20
2022-12-20T04:42:40.338Z,2.20
2022-12-20T04:46:44.996Z,2.40
2022-12-20T04:48:46.200Z,1.70
2022-12-20T04:51:07.480Z,3.03
2022-12-20T04:53:53.181Z,2.40
2022-12-20T04:56:40.842Z,1.33
2022-12-20T04:59:15.119Z,1.33
2022-12-20T05:01:52.026Z,1.90
2022-12-20T05:04:25.726Z,1.10
2022-12-20T05:07:02.417Z,1.00
2022-12-20T05:09:36.318Z,1.30
2022-12-20T05:12:16.211Z,1.40
2022-12-20T05:14:48.850Z,1.27
2022-12-20T05:17:25.176Z,1.13
2022-12-20T05:20:05.272Z,1.20
2022-12-20T05:22:54.012Z,1.63
2022-12-20T05:25:44.295Z,1.70
2022-12-20T05:28:24.608Z,1.33
2022-12-20T05:30:55.470Z,1.83
2022-12-20T05:33:42.093Z,1.70
2022-12-20T05:36:28.021Z,1.47
2022-12-20T05:39:15.970Z,1.80
2022-12-20T05:42:15.248Z,1.53
2022-12-20T05:44:56.723Z,1.40
2022-12-20T05:48:00.042Z,1.10
2022-12-20T05:50:32.450Z,1.20
2022-12-20T05:53:14.128Z,1.30
2022-12-20T05:55:49.495Z,1.40
2022-12-20T05:58:44.673Z,1.33
2022-12-20T06:01:38.911Z,1.10
2022-12-20T06:04:36.723Z,1.27
2022-12-20T06:13:37.365Z,1.13
2022-12-20T06:19:21.732Z,1.23
2022-12-20T06:21:57.448Z,1.03
2022-12-20T06:24:34.155Z,1.30
2022-12-20T06:27:22.313Z,1.60
2022-12-20T06:30:10.252Z,1.40
2022-12-20T06:32:48.883Z,1.83
2022-12-20T06:35:48.529Z,1.03
2022-12-20T06:38:43.844Z,1.40
2022-12-20T06:41:37.387Z,2.60
2022-12-20T06:44:27.306Z,1.90
2022-12-20T06:46:59.313Z,2.40
2022-12-20T06:49:29.826Z,1.77
2022-12-20T06:51:59.651Z,1.50
2022-12-20T06:54:29.097Z,1.80
2022-12-20T06:56:58.858Z,1.43
2022-12-20T06:59:29.901Z,1.27
2022-12-20T07:01:58.923Z,1.23
2022-12-20T07:04:40.173Z,1.10
2022-12-20T07:07:14.085Z,0.87
2022-12-20T07:09:43.932Z,0.97
2022-12-20T07:12:13.485Z,1.20
2022-12-20T07:14:44.182Z,1.27
2022-12-20T07:17:15.901Z,1.47
2022-12-20T07:19:50.563Z,0.90
2022-12-20T07:22:21.932Z,1.13
2022-12-20T07:25:13.811Z,0.87
2022-12-20T07:27:43.728Z,1.60
2022-12-20T07:30:24.117Z,1.10
2022-12-20T07:33:30.724Z,0.90
2022-12-20T07:36:02.425Z,1.00
2022-12-20T07:38:31.649Z,1.47
2022-12-20T07:41:02.053Z,1.10
2022-12-20T07:43:31.628Z,1.40
2022-12-20T07:46:02.682Z,1.17
2022-12-20T07:48:31.839Z,1.87
2022-12-20T07:51:02.521Z,1.30
2022-12-20T07:53:33.887Z,1.10
2022-12-20T07:56:03.487Z,1.30
2022-12-20T08:01:45.950Z,1.80
2022-12-20T08:04:20.803Z,1.27
2022-12-20T08:07:21.191Z,1.20
2022-12-20T08:09:50.331Z,1.23
2022-12-20T08:12:19.897Z,1.27
2022-12-20T08:14:49.009Z,1.33
2022-12-20T08:17:19.538Z,1.70
2022-12-20T08:19:51.773Z,1.87
2022-12-20T08:22:20.801Z,1.47
2022-12-20T08:24:49.881Z,1.17
2022-12-20T08:27:19.379Z,1.37
2022-12-20T08:29:50.140Z,1.47
2022-12-20T08:32:34.315Z,1.77
2022-12-20T08:35:15.662Z,1.20
2022-12-20T08:37:52.296Z,1.43
2022-12-20T08:40:21.985Z,1.10
2022-12-20T08:42:51.924Z,1.50
2022-12-20T08:45:21.056Z,1.47
2022-12-20T08:47:49.870Z,1.63
2022-12-20T08:50:33.596Z,1.13
2022-12-20T08:53:07.011Z,0.93
2022-12-20T08:55:37.759Z,1.00
2022-12-20T09:01:58.804Z,0.93
2022-12-20T09:05:10.727Z,1.33
2022-12-20T09:07:58.567Z,1.83
2022-12-20T09:10:53.182Z,1.70
2022-12-20T09:14:19.867Z,1.37
2022-12-20T09:16:55.404Z,1.27
2022-12-20T11:53:39.837Z,2.40
2022-12-20T11:56:43.485Z,3.00
2022-12-20T12:36:12.043Z,2.63
2022-12-20T12:39:02.143Z,2.67
2022-12-20T13:12:56.726Z,2.40
2022-12-20T13:15:50.279Z,1.70
2022-12-20T13:18:34.363Z,3.37
2022-12-20T13:21:38.686Z,2.23
2022-12-20T13:26:51.199Z,1.93
2022-12-20T13:28:20.777Z,2.33
2022-12-20T13:30:50.334Z,1.80
2022-12-20T13:33:28.115Z,2.10
2022-12-20T13:36:03.358Z,2.17
2022-12-20T13:38:59.136Z,2.70
2022-12-20T13:41:50.461Z,2.33
2022-12-20T13:51:32.102Z,2.03
2022-12-20T13:54:07.449Z,2.37
2022-12-20T14:28:44.165Z,3.50
2022-12-20T14:31:40.173Z,4.10
2022-12-20T14:34:29.710Z,4.30
2022-12-20T14:37:32.211Z,2.70
2022-12-20T14:44:36.585Z,3.57
2022-12-20T14:47:14.782Z,2.63
2022-12-20T15:21:47.576Z,7.80
2022-12-20T15:24:20.542Z,3.57
2022-12-20T15:26:55.113Z,2.83
2022-12-20T15:29:28.135Z,3.00
2022-12-20T15:32:04.560Z,2.73
2022-12-20T15:34:37.956Z,3.53
2022-12-20T15:37:24.027Z,3.60
2022-12-20T15:39:59.802Z,3.57
2022-12-20T15:42:48.723Z,2.57
2022-12-20T15:45:21.218Z,3.40
2022-12-20T15:47:52.500Z,3.57
2022-12-20T15:50:23.777Z,3.90
2022-12-20T15:52:58.121Z,4.00
2022-12-20T15:55:39.654Z,4.90
2022-12-20T15:58:11.941Z,4.80
2022-12-20T16:00:44.499Z,4.70
2022-12-20T16:03:20.809Z,4.97
2022-12-20T16:05:52.598Z,4.10
2022-12-20T16:08:26.190Z,3.80
2022-12-20T16:11:09.665Z,3.67
2022-12-20T16:13:39.359Z,3.50
2022-12-20T16:16:11.152Z,3.27
2022-12-20T16:18:43.304Z,4.10
2022-12-20T16:21:21.239Z,6.53
2022-12-20T16:23:55.479Z,7.23
2022-12-20T16:26:28.010Z,11.30
2022-12-20T16:28:58.916Z,6.50
2022-12-20T16:31:49.373Z,5.00
2022-12-20T16:34:19.466Z,3.97
2022-12-20T16:36:56.834Z,4.77
2022-12-20T16:39:29.973Z,4.20
2022-12-20T16:42:03.238Z,3.87
2022-12-20T16:44:54.689Z,4.47
2022-12-20T16:50:31.658Z,4.27
2022-12-20T16:56:47.115Z,4.20
2022-12-20T16:59:35.090Z,5.03
2022-12-20T17:02:09.371Z,4.07
2022-12-20T17:08:03.394Z,4.53
2022-12-20T17:10:51.546Z,3.43
2022-12-20T17:13:51.049Z,4.57
2022-12-20T17:16:54.777Z,3.47
2022-12-20T17:19:29.824Z,5.40
2022-12-20T17:25:10.301Z,3.97
2022-12-20T17:27:57.397Z,3.93
2022-12-20T17:31:10.923Z,3.70
2022-12-20T17:34:06.469Z,3.80
2022-12-20T17:37:33.358Z,3.70
2022-12-20T17:40:19.749Z,4.27
2022-12-20T17:46:51.648Z,4.07
2022-12-20T18:02:09.622Z,4.13
2022-12-20T18:05:57.155Z,4.20
2022-12-20T18:08:02.052Z,3.70
2022-12-20T18:14:29.517Z,5.13
2022-12-20T18:24:37.124Z,5.07
2022-12-20T18:27:17.371Z,3.23
2022-12-20T18:29:55.873Z,4.00
2022-12-20T18:32:30.676Z,3.30
2022-12-20T18:35:22.406Z,3.53
2022-12-20T18:38:11.788Z,3.97
2022-12-20T18:41:02.515Z,4.43
2022-12-20T18:44:08.173Z,4.70
2022-12-20T18:50:07.329Z,5.33
2022-12-20T18:52:47.266Z,4.63
2022-12-20T18:56:30.672Z,5.10
2022-12-20T18:59:11.448Z,5.10
2022-12-20T19:02:00.064Z,4.97
2022-12-20T19:04:38.951Z,4.60
2022-12-20T19:07:17.373Z,4.33
2022-12-20T19:14:07.952Z,3.80
2022-12-20T19:23:53.183Z,4.33
2022-12-20T19:27:13.652Z,4.30
2022-12-20T19:33:58.159Z,5.00
2022-12-20T19:41:36.844Z,4.37
2022-12-20T19:44:12.670Z,4.20
